sensor_id;sensor_type;location;lat;lon;timestamp;temperature;humidity
45383;DHT22;42455;51.660;5.824;2022-12-17T00:01:25;2.8;95.0
45383;DHT22;42455;51.660;5.824;2022-12-17T00:06:31;2.8;95.0
45383;DHT22;42455;51.660;5.824;2022-12-17T00:11:38;2.8;95.0
45383;DHT22;42455;51.660;5.824;2022-12-17T00:16:44;2.8;95.0
45383;DHT22;42455;51.660;5.824;2022-12-17T00:21:50;2.8;95.0
45383;DHT22;42455;51.660;5.824;2022-12-17T00:26:56;2.8;95.0
45383;DHT22;42455;51.660;5.824;2022-12-17T00:32:03;2.8;95.0
45383;DHT22;42455;51.660;5.824;2022-12-17T00:37:09;2.8;95.0
45383;DHT22;42455;51.660;5.824;2022-12-17T00:42:15;2.7;95.0
45383;DHT22;42455;51.660;5.824;2022-12-17T00:47:21;2.7;95.0
45383;DHT22;42455;51.660;5.824;2022-12-17T00:52:27;2.7;95.0
45383;DHT22;42455;51.660;5.824;2022-12-17T00:57:33;2.7;95.0
45383;DHT22;42455;51.660;5.824;2022-12-17T01:02:40;2.7;95.0
45383;DHT22;42455;51.660;5.824;2022-12-17T01:07:46;2.7;95.0
45383;DHT22;42455;51.660;5.824;2022-12-17T01:12:52;2.7;95.0
45383;DHT22;42455;51.660;5.824;2022-12-17T01:17:58;2.7;95.0
45383;DHT22;42455;51.660;5.824;2022-12-17T01:23:06;2.7;95.0
45383;DHT22;42455;51.660;5.824;2022-12-17T01:28:11;2.7;95.0
45383;DHT22;42455;51.660;5.824;2022-12-17T01:33:17;2.7;95.0
45383;DHT22;42455;51.660;5.824;2022-12-17T01:38:23;2.7;95.0
45383;DHT22;42455;51.660;5.824;2022-12-17T01:43:31;2.7;95.0
45383;DHT22;42455;51.660;5.824;2022-12-17T01:48:40;2.7;95.0
45383;DHT22;42455;51.660;5.824;2022-12-17T01:53:45;2.7;95.0
45383;DHT22;42455;51.660;5.824;2022-12-17T01:58:48;2.7;95.0
45383;DHT22;42455;51.660;5.824;2022-12-17T02:03:54;2.7;95.0
45383;DHT22;42455;51.660;5.824;2022-12-17T02:09:45;2.7;95.0
45383;DHT22;42455;51.660;5.824;2022-12-17T02:14:31;2.7;94.5
45383;DHT22;42455;51.660;5.824;2022-12-17T02:19:50;2.7;94.5
45383;DHT22;42455;51.660;5.824;2022-12-17T02:25:08;2.7;94.5
45383;DHT22;42455;51.660;5.824;2022-12-17T02:29:30;2.7;94.5
45383;DHT22;42455;51.660;5.824;2022-12-17T02:34:30;2.7;94.5
45383;DHT22;42455;51.660;5.824;2022-12-17T02:39:37;2.7;94.5
45383;DHT22;42455;51.660;5.824;2022-12-17T02:44:44;2.7;94.5
45383;DHT22;42455;51.660;5.824;2022-12-17T02:49:49;2.7;94.5
45383;DHT22;42455;51.660;5.824;2022-12-17T02:54:55;2.6;94.5
45383;DHT22;42455;51.660;5.824;2022-12-17T03:00:02;2.6;94.5
45383;DHT22;42455;51.660;5.824;2022-12-17T03:05:08;2.6;94.5
45383;DHT22;42455;51.660;5.824;2022-12-17T03:10:14;2.6;94.5
45383;DHT22;42455;51.660;5.824;2022-12-17T03:15:20;2.7;94.5
45383;DHT22;42455;51.660;5.824;2022-12-17T03:20:26;2.7;94.5
45383;DHT22;42455;51.660;5.824;2022-12-17T03:25:32;2.7;94.5
45383;DHT22;42455;51.660;5.824;2022-12-17T03:30:39;2.7;94.5
45383;DHT22;42455;51.660;5.824;2022-12-17T03:35:45;2.7;94.5
45383;DHT22;42455;51.660;5.824;2022-12-17T03:40:51;2.7;94.5
45383;DHT22;42455;51.660;5.824;2022-12-17T03:45:57;2.8;94.5
45383;DHT22;42455;51.660;5.824;2022-12-17T03:51:04;2.8;94.5
45383;DHT22;42455;51.660;5.824;2022-12-17T03:56:10;2.8;94.5
45383;DHT22;42455;51.660;5.824;2022-12-17T04:01:16;2.8;94.5
45383;DHT22;42455;51.660;5.824;2022-12-17T04:06:22;2.8;94.5
45383;DHT22;42455;51.660;5.824;2022-12-17T04:11:28;2.8;94.5
45383;DHT22;42455;51.660;5.824;2022-12-17T04:16:35;2.8;94.5
45383;DHT22;42455;51.660;5.824;2022-12-17T04:21:41;2.8;94.5
45383;DHT22;42455;51.660;5.824;2022-12-17T04:26:47;2.8;94.5
45383;DHT22;42455;51.660;5.824;2022-12-17T04:31:53;2.8;94.5
45383;DHT22;42455;51.660;5.824;2022-12-17T04:42:06;2.8;94.5
45383;DHT22;42455;51.660;5.824;2022-12-17T04:47:12;2.8;94.5
45383;DHT22;42455;51.660;5.824;2022-12-17T04:52:18;2.8;94.5
45383;DHT22;42455;51.660;5.824;2022-12-17T05:02:31;2.9;94.5
45383;DHT22;42455;51.660;5.824;2022-12-17T05:07:37;2.9;94.5
45383;DHT22;42455;51.660;5.824;2022-12-17T05:12:43;2.9;94.0
45383;DHT22;42455;51.660;5.824;2022-12-17T05:17:49;2.8;94.0
45383;DHT22;42455;51.660;5.824;2022-12-17T05:23:02;2.8;94.5
45383;DHT22;42455;51.660;5.824;2022-12-17T05:28:02;2.8;94.0
45383;DHT22;42455;51.660;5.824;2022-12-17T05:33:08;2.8;94.0
45383;DHT22;42455;51.660;5.824;2022-12-17T05:38:14;2.8;94.0
45383;DHT22;42455;51.660;5.824;2022-12-17T05:43:20;2.7;94.0
45383;DHT22;42455;51.660;5.824;2022-12-17T05:48:26;2.7;94.0
45383;DHT22;42455;51.660;5.824;2022-12-17T05:53:33;2.7;94.0
45383;DHT22;42455;51.660;5.824;2022-12-17T05:58:39;2.6;94.0
45383;DHT22;42455;51.660;5.824;2022-12-17T06:03:45;2.6;94.0
45383;DHT22;42455;51.660;5.824;2022-12-17T06:08:51;2.5;94.0
45383;DHT22;42455;51.660;5.824;2022-12-17T06:13:57;2.4;94.0
45383;DHT22;42455;51.660;5.824;2022-12-17T06:19:04;2.4;94.0
45383;DHT22;42455;51.660;5.824;2022-12-17T06:24:10;2.3;94.5
45383;DHT22;42455;51.660;5.824;2022-12-17T06:29:16;2.3;94.5
45383;DHT22;42455;51.660;5.824;2022-12-17T06:34:22;2.3;94.5
45383;DHT22;42455;51.660;5.824;2022-12-17T06:44:35;2.3;94.5
45383;DHT22;42455;51.660;5.824;2022-12-17T06:49:41;2.3;94.5
45383;DHT22;42455;51.660;5.824;2022-12-17T06:54:47;2.3;94.5
45383;DHT22;42455;51.660;5.824;2022-12-17T06:59:53;2.3;94.5
45383;DHT22;42455;51.660;5.824;2022-12-17T07:05:00;2.3;94.5
45383;DHT22;42455;51.660;5.824;2022-12-17T07:10:06;2.2;94.5
45383;DHT22;42455;51.660;5.824;2022-12-17T07:15:12;2.2;94.5
45383;DHT22;42455;51.660;5.824;2022-12-17T07:20:18;2.2;94.5
45383;DHT22;42455;51.660;5.824;2022-12-17T07:25:24;2.2;94.5
45383;DHT22;42455;51.660;5.824;2022-12-17T07:30:30;2.2;94.5
45383;DHT22;42455;51.660;5.824;2022-12-17T07:35:37;2.2;94.5
45383;DHT22;42455;51.660;5.824;2022-12-17T07:40:42;2.2;94.5
45383;DHT22;42455;51.660;5.824;2022-12-17T07:45:48;2.2;94.5
45383;DHT22;42455;51.660;5.824;2022-12-17T07:50:54;2.2;94.5
45383;DHT22;42455;51.660;5.824;2022-12-17T07:56:00;2.2;94.5
45383;DHT22;42455;51.660;5.824;2022-12-17T08:01:07;2.2;94.5
45383;DHT22;42455;51.660;5.824;2022-12-17T08:06:13;2.2;94.5
45383;DHT22;42455;51.660;5.824;2022-12-17T08:11:19;2.2;94.5
45383;DHT22;42455;51.660;5.824;2022-12-17T08:16:24;2.3;94.5
45383;DHT22;42455;51.660;5.824;2022-12-17T08:21:31;2.3;94.5
45383;DHT22;42455;51.660;5.824;2022-12-17T08:26:37;2.3;94.5
45383;DHT22;42455;51.660;5.824;2022-12-17T08:31:43;2.3;94.5
45383;DHT22;42455;51.660;5.824;2022-12-17T08:36:49;2.3;94.5
45383;DHT22;42455;51.660;5.824;2022-12-17T08:41:55;2.3;94.5
45383;DHT22;42455;51.660;5.824;2022-12-17T08:47:02;2.4;94.5
45383;DHT22;42455;51.660;5.824;2022-12-17T08:52:08;2.4;94.5
45383;DHT22;42455;51.660;5.824;2022-12-17T08:57:14;2.4;94.5
45383;DHT22;42455;51.660;5.824;2022-12-17T09:02:20;2.4;94.5
45383;DHT22;42455;51.660;5.824;2022-12-17T09:07:26;2.4;94.5
45383;DHT22;42455;51.660;5.824;2022-12-17T09:12:33;2.5;94.5
45383;DHT22;42455;51.660;5.824;2022-12-17T09:17:39;2.5;94.5
45383;DHT22;42455;51.660;5.824;2022-12-17T09:22:45;2.5;94.5
45383;DHT22;42455;51.660;5.824;2022-12-17T09:27:51;2.5;94.5
45383;DHT22;42455;51.660;5.824;2022-12-17T09:32:57;2.6;94.5
45383;DHT22;42455;51.660;5.824;2022-12-17T09:38:04;2.6;94.0
45383;DHT22;42455;51.660;5.824;2022-12-17T09:43:38;2.6;94.0
45383;DHT22;42455;51.660;5.824;2022-12-17T09:48:58;2.6;94.0
45383;DHT22;42455;51.660;5.824;2022-12-17T09:53:36;2.6;94.0
45383;DHT22;42455;51.660;5.824;2022-12-17T09:58:35;2.7;94.0
45383;DHT22;42455;51.660;5.824;2022-12-17T10:03:37;2.7;94.0
45383;DHT22;42455;51.660;5.824;2022-12-17T10:08:42;2.7;94.0
45383;DHT22;42455;51.660;5.824;2022-12-17T10:13:47;2.8;94.0
45383;DHT22;42455;51.660;5.824;2022-12-17T10:18:53;2.7;94.0
45383;DHT22;42455;51.660;5.824;2022-12-17T10:24:04;2.7;94.0
45383;DHT22;42455;51.660;5.824;2022-12-17T10:29:11;2.8;94.0
45383;DHT22;42455;51.660;5.824;2022-12-17T10:34:14;2.8;94.0
45383;DHT22;42455;51.660;5.824;2022-12-17T10:39:21;2.8;94.0
45383;DHT22;42455;51.660;5.824;2022-12-17T10:44:26;2.8;94.0
45383;DHT22;42455;51.660;5.824;2022-12-17T10:49:31;2.9;94.0
45383;DHT22;42455;51.660;5.824;2022-12-17T10:54:37;2.8;93.5
45383;DHT22;42455;51.660;5.824;2022-12-17T10:59:43;2.8;93.5
45383;DHT22;42455;51.660;5.824;2022-12-17T11:04:52;2.8;93.5
45383;DHT22;42455;51.660;5.824;2022-12-17T11:10:02;2.8;93.5
45383;DHT22;42455;51.660;5.824;2022-12-17T11:15:16;2.8;93.5
45383;DHT22;42455;51.660;5.824;2022-12-17T11:20:46;2.8;93.5
45383;DHT22;42455;51.660;5.824;2022-12-17T11:25:24;2.8;93.5
45383;DHT22;42455;51.660;5.824;2022-12-17T11:30:21;2.8;93.5
45383;DHT22;42455;51.660;5.824;2022-12-17T11:35:52;2.8;93.5
45383;DHT22;42455;51.660;5.824;2022-12-17T11:40:35;2.8;93.5
45383;DHT22;42455;51.660;5.824;2022-12-17T11:46:24;2.8;93.5
45383;DHT22;42455;51.660;5.824;2022-12-17T11:51:12;2.8;93.5
45383;DHT22;42455;51.660;5.824;2022-12-17T11:56:29;2.8;93.0
45383;DHT22;42455;51.660;5.824;2022-12-17T12:01:14;2.8;93.0
45383;DHT22;42455;51.660;5.824;2022-12-17T12:07:23;2.8;93.0
45383;DHT22;42455;51.660;5.824;2022-12-17T12:11:47;2.8;93.5
45383;DHT22;42455;51.660;5.824;2022-12-17T12:17:59;2.8;93.0
45383;DHT22;42455;51.660;5.824;2022-12-17T12:22:47;2.7;93.0
45383;DHT22;42455;51.660;5.824;2022-12-17T12:29:23;2.7;93.0
45383;DHT22;42455;51.660;5.824;2022-12-17T12:33:57;2.6;93.0
45383;DHT22;42455;51.660;5.824;2022-12-17T12:36:42;2.6;93.0
45383;DHT22;42455;51.660;5.824;2022-12-17T12:42:01;2.5;93.0
45383;DHT22;42455;51.660;5.824;2022-12-17T12:46:57;2.5;93.0
45383;DHT22;42455;51.660;5.824;2022-12-17T12:52:00;2.5;93.0
45383;DHT22;42455;51.660;5.824;2022-12-17T12:57:24;2.4;93.0
45383;DHT22;42455;51.660;5.824;2022-12-17T13:02:21;2.4;93.0
45383;DHT22;42455;51.660;5.824;2022-12-17T13:07:20;2.3;93.0
45383;DHT22;42455;51.660;5.824;2022-12-17T13:12:46;2.3;93.0
45383;DHT22;42455;51.660;5.824;2022-12-17T13:17:36;2.2;93.0
45383;DHT22;42455;51.660;5.824;2022-12-17T13:22:48;2.2;93.0
45383;DHT22;42455;51.660;5.824;2022-12-17T13:27:43;2.1;92.5
45383;DHT22;42455;51.660;5.824;2022-12-17T13:33:34;2.1;92.5
45383;DHT22;42455;51.660;5.824;2022-12-17T13:38:55;2.0;93.0
45383;DHT22;42455;51.660;5.824;2022-12-17T13:43:01;2.0;93.0
45383;DHT22;42455;51.660;5.824;2022-12-17T13:48:17;2.0;93.0
45383;DHT22;42455;51.660;5.824;2022-12-17T13:53:14;1.9;93.0
45383;DHT22;42455;51.660;5.824;2022-12-17T13:58:24;1.9;93.0
45383;DHT22;42455;51.660;5.824;2022-12-17T14:03:26;1.9;93.0
45383;DHT22;42455;51.660;5.824;2022-12-17T14:08:32;1.9;93.0
45383;DHT22;42455;51.660;5.824;2022-12-17T14:13:38;1.9;93.0
45383;DHT22;42455;51.660;5.824;2022-12-17T14:18:48;1.9;93.0
45383;DHT22;42455;51.660;5.824;2022-12-17T14:23:51;1.9;93.0
45383;DHT22;42455;51.660;5.824;2022-12-17T14:28:56;1.8;93.0
45383;DHT22;42455;51.660;5.824;2022-12-17T14:34:04;1.8;93.0
45383;DHT22;42455;51.660;5.824;2022-12-17T14:39:27;1.8;93.0
45383;DHT22;42455;51.660;5.824;2022-12-17T14:44:18;1.8;93.0
45383;DHT22;42455;51.660;5.824;2022-12-17T14:49:21;1.7;93.0
45383;DHT22;42455;51.660;5.824;2022-12-17T14:54:28;1.7;93.0
45383;DHT22;42455;51.660;5.824;2022-12-17T14:59:35;1.7;93.0
45383;DHT22;42455;51.660;5.824;2022-12-17T15:04:40;1.7;93.0
45383;DHT22;42455;51.660;5.824;2022-12-17T15:09:46;1.7;93.0
45383;DHT22;42455;51.660;5.824;2022-12-17T15:14:52;1.6;93.0
45383;DHT22;42455;51.660;5.824;2022-12-17T15:19:59;1.6;92.5
45383;DHT22;42455;51.660;5.824;2022-12-17T15:25:05;1.5;93.0
45383;DHT22;42455;51.660;5.824;2022-12-17T15:30:14;1.5;93.0
45383;DHT22;42455;51.660;5.824;2022-12-17T15:35:17;1.4;93.0
45383;DHT22;42455;51.660;5.824;2022-12-17T15:40:23;1.4;93.0
45383;DHT22;42455;51.660;5.824;2022-12-17T15:45:30;1.4;93.0
45383;DHT22;42455;51.660;5.824;2022-12-17T15:50:36;1.3;93.0
45383;DHT22;42455;51.660;5.824;2022-12-17T15:55:42;1.3;93.0
45383;DHT22;42455;51.660;5.824;2022-12-17T16:00:48;1.2;93.0
45383;DHT22;42455;51.660;5.824;2022-12-17T16:05:54;1.2;93.0
45383;DHT22;42455;51.660;5.824;2022-12-17T16:11:04;1.1;93.0
45383;DHT22;42455;51.660;5.824;2022-12-17T16:16:07;1.1;93.0
45383;DHT22;42455;51.660;5.824;2022-12-17T16:21:13;1.0;93.0
45383;DHT22;42455;51.660;5.824;2022-12-17T16:26:19;0.9;93.0
45383;DHT22;42455;51.660;5.824;2022-12-17T16:31:25;0.9;93.0
45383;DHT22;42455;51.660;5.824;2022-12-17T16:36:32;0.8;93.0
45383;DHT22;42455;51.660;5.824;2022-12-17T16:41:38;0.7;93.0
45383;DHT22;42455;51.660;5.824;2022-12-17T16:46:44;0.7;92.5
45383;DHT22;42455;51.660;5.824;2022-12-17T16:51:51;0.6;93.0
45383;DHT22;42455;51.660;5.824;2022-12-17T16:56:57;0.5;93.0
45383;DHT22;42455;51.660;5.824;2022-12-17T17:02:03;0.5;93.0
45383;DHT22;42455;51.660;5.824;2022-12-17T17:07:09;0.5;93.0
45383;DHT22;42455;51.660;5.824;2022-12-17T17:12:15;0.4;93.0
45383;DHT22;42455;51.660;5.824;2022-12-17T17:17:21;0.4;93.0
45383;DHT22;42455;51.660;5.824;2022-12-17T17:22:28;0.3;93.0
45383;DHT22;42455;51.660;5.824;2022-12-17T17:27:34;0.3;93.0
45383;DHT22;42455;51.660;5.824;2022-12-17T17:32:40;0.2;93.0
45383;DHT22;42455;51.660;5.824;2022-12-17T17:37:46;0.2;93.5
45383;DHT22;42455;51.660;5.824;2022-12-17T17:42:52;0.2;93.0
45383;DHT22;42455;51.660;5.824;2022-12-17T17:47:59;0.2;93.5
45383;DHT22;42455;51.660;5.824;2022-12-17T17:53:05;0.2;93.5
45383;DHT22;42455;51.660;5.824;2022-12-17T17:58:11;0.2;93.5
45383;DHT22;42455;51.660;5.824;2022-12-17T18:03:17;0.2;93.5
45383;DHT22;42455;51.660;5.824;2022-12-17T18:08:23;0.1;93.5
45383;DHT22;42455;51.660;5.824;2022-12-17T18:13:30;0.1;93.5
45383;DHT22;42455;51.660;5.824;2022-12-17T18:18:36;0.1;93.5
45383;DHT22;42455;51.660;5.824;2022-12-17T18:23:43;0.2;93.5
45383;DHT22;42455;51.660;5.824;2022-12-17T18:28:48;0.1;93.5
45383;DHT22;42455;51.660;5.824;2022-12-17T18:39:04;0.1;93.5
45383;DHT22;42455;51.660;5.824;2022-12-17T18:44:07;0.1;93.5
45383;DHT22;42455;51.660;5.824;2022-12-17T18:49:15;0.1;93.5
45383;DHT22;42455;51.660;5.824;2022-12-17T18:54:22;0.1;93.5
45383;DHT22;42455;51.660;5.824;2022-12-17T18:59:27;0.0;93.0
45383;DHT22;42455;51.660;5.824;2022-12-17T19:04:32;0.0;93.0
45383;DHT22;42455;51.660;5.824;2022-12-17T19:09:38;-0.1;93.5
45383;DHT22;42455;51.660;5.824;2022-12-17T19:14:43;-0.1;93.5
45383;DHT22;42455;51.660;5.824;2022-12-17T19:19:49;-0.2;93.0
45383;DHT22;42455;51.660;5.824;2022-12-17T19:24:56;-0.2;93.0
45383;DHT22;42455;51.660;5.824;2022-12-17T19:30:03;0.0;0.0
45383;DHT22;42455;51.660;5.824;2022-12-17T19:35:08;-0.4;93.0
45383;DHT22;42455;51.660;5.824;2022-12-17T19:40:14;-0.4;93.5
45383;DHT22;42455;51.660;5.824;2022-12-17T19:45:20;-0.5;93.5
45383;DHT22;42455;51.660;5.824;2022-12-17T19:50:27;-0.5;93.5
45383;DHT22;42455;51.660;5.824;2022-12-17T19:55:33;-0.5;93.5
45383;DHT22;42455;51.660;5.824;2022-12-17T20:00:39;-0.5;93.5
45383;DHT22;42455;51.660;5.824;2022-12-17T20:05:46;-0.6;93.5
45383;DHT22;42455;51.660;5.824;2022-12-17T20:10:51;-0.6;93.5
45383;DHT22;42455;51.660;5.824;2022-12-17T20:15:59;-0.6;93.5
45383;DHT22;42455;51.660;5.824;2022-12-17T20:21:04;-0.6;94.0
45383;DHT22;42455;51.660;5.824;2022-12-17T20:26:10;-0.6;94.0
45383;DHT22;42455;51.660;5.824;2022-12-17T20:31:17;-0.6;94.0
45383;DHT22;42455;51.660;5.824;2022-12-17T20:36:23;-0.5;94.0
45383;DHT22;42455;51.660;5.824;2022-12-17T20:41:30;-0.5;94.0
45383;DHT22;42455;51.660;5.824;2022-12-17T20:46:35;-0.5;94.0
45383;DHT22;42455;51.660;5.824;2022-12-17T20:51:41;-0.5;94.0
45383;DHT22;42455;51.660;5.824;2022-12-17T20:56:47;-0.5;93.5
45383;DHT22;42455;51.660;5.824;2022-12-17T21:01:54;-0.6;93.5
45383;DHT22;42455;51.660;5.824;2022-12-17T21:07:00;-0.6;94.0
45383;DHT22;42455;51.660;5.824;2022-12-17T21:12:06;-0.6;93.5
45383;DHT22;42455;51.660;5.824;2022-12-17T21:17:12;-0.7;94.0
45383;DHT22;42455;51.660;5.824;2022-12-17T21:22:18;-0.7;94.0
45383;DHT22;42455;51.660;5.824;2022-12-17T21:27:25;-0.7;94.0
45383;DHT22;42455;51.660;5.824;2022-12-17T21:32:31;-0.7;93.5
45383;DHT22;42455;51.660;5.824;2022-12-17T21:37:37;-0.8;93.5
45383;DHT22;42455;51.660;5.824;2022-12-17T21:42:43;-0.8;93.5
45383;DHT22;42455;51.660;5.824;2022-12-17T21:47:50;-0.8;94.0
45383;DHT22;42455;51.660;5.824;2022-12-17T21:52:56;-0.9;94.0
45383;DHT22;42455;51.660;5.824;2022-12-17T21:58:03;-0.8;94.0
45383;DHT22;42455;51.660;5.824;2022-12-17T22:03:08;-0.8;94.0
45383;DHT22;42455;51.660;5.824;2022-12-17T22:08:14;-0.8;94.0
45383;DHT22;42455;51.660;5.824;2022-12-17T22:13:20;-0.8;94.0
45383;DHT22;42455;51.660;5.824;2022-12-17T22:18:27;-0.8;94.0
45383;DHT22;42455;51.660;5.824;2022-12-17T22:23:33;-0.8;94.0
45383;DHT22;42455;51.660;5.824;2022-12-17T22:28:39;-0.8;94.0
45383;DHT22;42455;51.660;5.824;2022-12-17T22:33:47;-0.8;93.5
45383;DHT22;42455;51.660;5.824;2022-12-17T22:38:52;-0.9;93.5
45383;DHT22;42455;51.660;5.824;2022-12-17T22:43:59;-0.9;93.5
45383;DHT22;42455;51.660;5.824;2022-12-17T22:49:04;-1.0;93.5
45383;DHT22;42455;51.660;5.824;2022-12-17T22:54:11;-1.0;93.5
45383;DHT22;42455;51.660;5.824;2022-12-17T22:59:17;-1.2;93.0
45383;DHT22;42455;51.660;5.824;2022-12-17T23:04:23;-1.3;93.0
45383;DHT22;42455;51.660;5.824;2022-12-17T23:09:29;-1.4;93.0
45383;DHT22;42455;51.660;5.824;2022-12-17T23:14:35;-1.4;93.0
45383;DHT22;42455;51.660;5.824;2022-12-17T23:19:41;-1.5;93.0
45383;DHT22;42455;51.660;5.824;2022-12-17T23:24:48;-1.6;93.0
45383;DHT22;42455;51.660;5.824;2022-12-17T23:29:54;-1.6;93.0
45383;DHT22;42455;51.660;5.824;2022-12-17T23:35:00;-1.7;93.0
45383;DHT22;42455;51.660;5.824;2022-12-17T23:40:07;-1.7;93.0
45383;DHT22;42455;51.660;5.824;2022-12-17T23:45:12;-1.8;93.0
45383;DHT22;42455;51.660;5.824;2022-12-17T23:50:19;-1.9;93.0
45383;DHT22;42455;51.660;5.824;2022-12-17T23:55:25;-1.9;93.0
